ADDS METAR Data INFO
IDs: Format: Raw Decoded Include TAF

Data at: 0137 UTC 25 Feb 2018

METAR for:KDAY (Dayton/Cox Intl, OH, US)
Text:KDAY 250056Z 10013KT 5SM -RA BR BKN006 BKN037 OVC065 09/09 A2988 RMK AO2 SLP119 TWR INC P0019 T00890089
Temperature: 8.9°C ( 48°F)
Dewpoint: 8.9°C ( 48°F) [RH = 100%]
Pressure (altimeter):29.88 inches Hg (1011.9 mb) [Sea level pressure: 1011.9 mb]
Winds:from the E (100 degrees) at 15 MPH (13 knots; 6.7 m/s)
Visibility: 5 sm ( 8 km)
Ceiling:600 feet AGL
Clouds: broken clouds at 600 feet AGL, broken clouds at 3700 feet AGL, overcast cloud deck at 6500 feet AGL
Weather:-RA BR (light rain, mist)